Time;durP1;ratioP1;P1;durP2;ratioP2;P2;SDS_P1;SDS_P2;PMS_P1;PMS_P2;Temp;Humidity;BMP_temperature;BMP_pressure;BME280_temperature;BME280_humidity;BME280_pressure;Samples;Min_cycle;Max_cycle;Signal;HPM_P1;HPM_P2
2023/04/19 04:02:14;;;;;;;8.75;5.68;;;;;;;9.72;94.24;100213.50;6217817;28;20075;31
2023/04/19 04:05:18;;;;;;;7.30;4.75;;;;;;;9.69;93.25;100225.44;5272862;33;35033;-92
2023/04/19 04:08:22;;;;;;;7.22;4.60;;;;;;;9.67;95.11;100222.06;5261352;33;34298;-91
2023/04/19 04:11:25;;;;;;;5.75;4.93;;;;;;;9.62;93.77;100219.06;5260325;33;35371;-92
2023/04/19 04:14:28;;;;;;;6.75;4.82;;;;;;;9.68;96.18;100220.22;5249318;33;34178;-93
2023/04/19 04:17:31;;;;;;;6.00;4.15;;;;;;;9.62;94.10;100216.37;5249260;33;34645;-86
2023/04/19 04:20:35;;;;;;;9.20;5.20;;;;;;;9.63;95.22;100218.06;5261513;33;34271;-87
2023/04/19 04:23:38;;;;;;;7.03;5.15;;;;;;;9.66;94.50;100219.56;5250509;33;33815;-86
2023/04/19 04:26:42;;;;;;;8.25;5.05;;;;;;;9.74;94.17;100214.16;5262060;33;34551;-86
2023/04/19 04:29:48;;;;;;;9.43;4.85;;;;;;;9.76;93.51;100218.31;5249664;33;33860;-86
2023/04/19 04:32:51;;;;;;;9.38;5.07;;;;;;;9.77;94.14;100220.00;5261917;33;34722;-86
2023/04/19 04:35:55;;;;;;;7.15;4.68;;;;;;;9.87;91.75;100216.25;5263406;33;33912;-86
2023/04/19 04:39:00;;;;;;;5.90;4.12;;;;;;;9.88;89.77;100210.69;5289287;33;35363;-86
2023/04/19 04:42:07;;;;;;;6.50;3.90;;;;;;;10.01;90.10;100207.44;5268737;33;35677;-86
2023/04/19 04:45:10;;;;;;;7.12;5.03;;;;;;;10.13;87.57;100213.25;5263589;33;33983;-85
2023/04/19 04:48:13;;;;;;;4.62;4.10;;;;;;;10.35;86.17;100212.41;5277211;33;34528;-85
2023/04/19 04:51:16;;;;;;;11.00;4.93;;;;;;;10.41;87.14;100216.22;5280431;33;33722;-85
2023/04/19 04:54:19;;;;;;;6.35;4.28;;;;;;;10.46;83.11;100218.41;5268231;33;34036;-85
2023/04/19 04:57:22;;;;;;;7.22;4.30;;;;;;;10.59;79.78;100210.56;5249826;33;34944;-85
2023/04/19 05:00:25;;;;;;;8.77;5.22;;;;;;;10.73;79.39;100214.28;5249721;33;33935;-85
2023/04/19 05:03:31;;;;;;;8.10;4.40;;;;;;;10.80;79.29;100205.28;5273726;33;34708;-85
2023/04/19 05:06:35;;;;;;;8.40;4.37;;;;;;;10.83;80.30;100206.78;5260857;33;34415;-85
2023/04/19 05:09:38;;;;;;;7.78;4.40;;;;;;;10.88;77.23;100198.97;5249462;33;34096;-85
2023/04/19 05:12:41;;;;;;;6.03;4.20;;;;;;;10.96;77.95;100198.06;5273568;33;34706;-85
2023/04/19 05:15:44;;;;;;;6.47;4.53;;;;;;;11.05;74.70;100196.94;5263093;33;33882;-87
2023/04/19 05:18:48;;;;;;;11.20;4.68;;;;;;;11.00;75.03;100200.22;5249901;33;34742;-86
2023/04/19 05:21:51;;;;;;;7.65;4.40;;;;;;;11.10;75.79;100202.63;5260303;33;32889;-86
2023/04/19 05:24:54;;;;;;;7.80;4.12;;;;;;;11.10;75.02;100199.94;5248932;33;34057;-86
2023/04/19 05:27:57;;;;;;;7.78;4.37;;;;;;;11.33;73.50;100202.53;5248986;33;35434;-86
2023/04/19 05:31:00;;;;;;;6.47;4.32;;;;;;;11.56;72.77;100202.41;5248374;33;34705;-85
2023/04/19 05:34:03;;;;;;;7.00;4.62;;;;;;;11.83;68.59;100197.31;5259996;33;33790;-86
2023/04/19 05:37:06;;;;;;;5.60;4.20;;;;;;;12.05;68.08;100199.06;5272487;33;34327;-86
2023/04/19 05:40:10;;;;;;;7.20;4.18;;;;;;;12.31;66.74;100200.31;5248301;33;34169;-86
2023/04/19 05:43:13;;;;;;;8.55;4.18;;;;;;;12.56;65.77;100196.19;5263423;33;34608;-86
2023/04/19 05:46:16;;;;;;;8.55;4.32;;;;;;;13.06;64.25;100202.38;5272273;33;33977;-86
2023/04/19 05:49:19;;;;;;;9.63;4.85;;;;;;;13.11;62.70;100204.50;5259422;33;33539;-86
2023/04/19 05:52:22;;;;;;;5.95;4.25;;;;;;;13.19;63.56;100204.31;5242683;33;34532;-86
2023/04/19 05:55:26;;;;;;;8.98;4.65;;;;;;;13.37;61.61;100204.66;5258505;33;34610;-86
2023/04/19 05:58:30;;;;;;;9.75;4.43;;;;;;;13.33;63.13;100197.97;5248246;33;33949;-86
2023/04/19 06:01:34;;;;;;;7.10;4.43;;;;;;;13.41;62.99;100191.56;5249930;33;33509;-86
2023/04/19 06:04:37;;;;;;;8.43;4.93;;;;;;;13.41;62.57;100204.28;5264099;33;34943;-86
2023/04/19 06:07:41;;;;;;;6.47;4.35;;;;;;;13.53;60.77;100203.47;5268250;33;34501;-86
2023/04/19 06:10:56;;;;;;;8.93;4.72;;;;;;;13.63;61.30;100200.44;5270216;33;34191;-91
2023/04/19 06:14:12;;;;;;;6.55;4.37;;;;;;;13.98;60.08;100197.59;5259994;33;34966;-87
2023/04/19 06:17:15;;;;;;;6.72;4.37;;;;;;;14.20;59.89;100192.87;5269248;33;32577;-87
2023/04/19 06:20:18;;;;;;;5.85;4.40;;;;;;;14.19;59.86;100185.78;5273058;33;33569;-87
2023/04/19 06:23:22;;;;;;;8.25;4.90;;;;;;;14.24;59.27;100188.69;5270166;33;33892;-87
2023/04/19 06:26:25;;;;;;;8.30;4.72;;;;;;;14.40;60.26;100187.47;5267652;33;33767;-87
2023/04/19 06:29:28;;;;;;;7.93;4.37;;;;;;;14.30;59.83;100190.56;5254113;33;34958;-86
2023/04/19 06:32:31;;;;;;;9.48;4.85;;;;;;;14.36;59.46;100181.66;5246358;33;34743;-87
2023/04/19 06:35:34;;;;;;;9.40;4.90;;;;;;;14.49;60.56;100175.38;5242535;33;33854;-86
2023/04/19 06:38:40;;;;;;;7.03;4.95;;;;;;;14.67;59.09;100183.75;5247683;33;33629;-86
2023/04/19 06:41:43;;;;;;;9.00;4.70;;;;;;;14.81;58.14;100167.47;5234413;33;34197;-86
2023/04/19 06:44:48;;;;;;;6.60;4.32;;;;;;;14.89;57.39;100172.69;5247017;33;34650;-86
2023/04/19 06:47:51;;;;;;;8.45;4.60;;;;;;;15.27;57.63;100170.09;5260840;33;33505;-87
2023/04/19 06:50:54;;;;;;;6.70;4.87;;;;;;;15.33;56.18;100169.22;5253803;33;34457;-86
2023/04/19 06:53:57;;;;;;;7.90;4.72;;;;;;;15.63;55.75;100166.78;5283244;33;33746;-86
2023/04/19 06:57:01;;;;;;;5.90;3.85;;;;;;;15.95;52.68;100172.31;5280905;33;35291;-87
2023/04/19 07:00:07;;;;;;;6.90;4.20;;;;;;;15.92;52.79;100161.88;5267151;33;33875;-87
2023/04/19 07:03:10;;;;;;;8.50;4.50;;;;;;;15.98;51.77;100162.87;5244773;33;33770;-87
2023/04/19 07:06:13;;;;;;;7.28;3.70;;;;;;;15.91;49.04;100164.78;5245234;33;34686;-87
2023/04/19 07:09:16;;;;;;;8.63;3.90;;;;;;;16.26;50.69;100162.47;5261536;33;34841;-87
2023/04/19 07:12:19;;;;;;;7.28;3.85;;;;;;;16.21;51.04;100154.19;5252512;33;35255;-87
2023/04/19 07:15:21;;;;;;;6.15;3.80;;;;;;;16.54;50.70;100156.63;5264004;33;33986;-87
2023/04/19 07:18:25;;;;;;;6.32;3.97;;;;;;;16.78;46.57;100154.97;5251603;33;34683;-87
2023/04/19 07:21:32;;;;;;;4.53;3.10;;;;;;;16.98;45.31;100152.03;5241379;33;32463;-87
2023/04/19 07:24:35;;;;;;;4.72;3.12;;;;;;;17.10;46.33;100149.41;5251103;33;33444;-87
2023/04/19 07:27:37;;;;;;;4.72;3.20;;;;;;;17.20;45.29;100155.16;5259525;33;33479;-87
2023/04/19 07:30:40;;;;;;;5.72;3.42;;;;;;;17.13;44.70;100146.22;5274952;33;33984;-87
2023/04/19 07:33:44;;;;;;;6.80;3.40;;;;;;;17.02;44.62;100149.69;5250406;33;34742;-87
2023/04/19 07:36:47;;;;;;;5.12;3.33;;;;;;;17.23;43.91;100138.38;5255055;33;33873;-86
2023/04/19 07:39:50;;;;;;;6.78;3.37;;;;;;;17.34;42.59;100144.94;5260676;33;34813;-87
2023/04/19 07:42:54;;;;;;;6.60;3.00;;;;;;;17.35;42.71;100150.16;5238195;33;34121;-87
2023/04/19 07:45:57;;;;;;;4.65;3.08;;;;;;;17.67;41.99;100144.53;5259585;33;33897;-87
2023/04/19 07:49:00;;;;;;;5.70;3.42;;;;;;;17.52;42.06;100144.94;5247689;33;34703;-87
2023/04/19 07:52:06;;;;;;;6.72;3.28;;;;;;;17.46;43.06;100140.38;5301431;28;34684;-85
2023/04/19 08:07:18;;;;;;;6.95;3.50;;;;;;;17.42;40.95;100144.63;5308512;33;32898;-87
2023/04/19 08:10:22;;;;;;;15.57;5.50;;;;;;;17.51;41.67;100137.81;5341858;28;33984;-87
2023/04/19 08:13:52;;;;;;;5.53;3.30;;;;;;;17.38;41.50;100135.28;5310792;33;35113;-86
2023/04/19 08:37:31;;;;;;;2.87;2.40;;;;;;;18.56;36.43;100118.22;4206772;28;20120;-90
2023/04/19 08:40:39;;;;;;;2.75;2.25;;;;;;;18.45;35.72;100110.84;5312680;33;34125;-88
2023/04/19 08:43:43;;;;;;;3.28;2.62;;;;;;;18.63;35.93;100119.97;5313818;33;33922;-88
2023/04/19 08:46:47;;;;;;;2.87;2.60;;;;;;;18.54;35.98;100112.19;5313047;33;33973;-88
2023/04/19 08:49:51;;;;;;;4.43;2.95;;;;;;;18.72;35.97;100111.22;5340396;28;34744;-87
2023/04/19 08:57:15;;;;;;;5.47;2.70;;;;;;;18.53;35.54;100104.22;4360625;31;20109;-87
2023/04/19 09:00:19;;;;;;;4.55;2.90;;;;;;;18.53;35.66;100101.50;5291252;33;33423;-87
2023/04/19 09:03:22;;;;;;;4.10;2.55;;;;;;;18.27;36.16;100103.59;5290764;33;34729;-87
2023/04/19 09:06:26;;;;;;;3.33;2.58;;;;;;;18.38;36.62;100101.97;5290418;33;35276;-87
2023/04/19 09:09:29;;;;;;;6.68;3.28;;;;;;;18.30;37.04;100111.31;5292257;33;35369;-87
2023/04/19 09:13:02;;;;;;;3.65;2.92;;;;;;;17.95;39.17;100097.63;5291150;33;34898;-87
2023/04/19 09:16:06;;;;;;;4.10;3.20;;;;;;;17.81;40.46;100101.59;5301134;33;34621;-87
2023/04/19 09:19:12;;;;;;;3.90;3.40;;;;;;;17.90;39.96;100094.75;5300648;33;34098;-87
2023/04/19 09:22:26;;;;;;;5.90;3.50;;;;;;;17.79;41.23;100096.41;5303705;33;33862;-87
2023/04/19 09:25:29;;;;;;;4.87;3.70;;;;;;;17.64;41.22;100098.72;5297005;33;34022;-86
2023/04/19 09:29:06;;;;;;;5.28;3.80;;;;;;;18.02;41.25;100092.94;5289703;33;34513;-87
2023/04/19 09:32:11;;;;;;;8.68;4.18;;;;;;;18.15;40.67;100089.16;5289431;33;33923;-86
2023/04/19 09:35:17;;;;;;;6.95;3.40;;;;;;;18.13;41.08;100083.94;5303430;28;34705;-86
2023/04/19 09:38:20;;;;;;;6.05;3.97;;;;;;;18.52;40.36;100088.94;5319335;28;34333;-87
2023/04/19 10:52:30;;;;;;;6.18;4.62;;;;;;;18.54;43.41;100046.75;5305250;33;113330;-86
2023/04/19 10:56:08;;;;;;;5.55;4.05;;;;;;;18.09;43.05;100050.03;5354439;28;33440;-86
2023/04/19 10:59:20;;;;;;;5.85;4.07;;;;;;;18.06;42.73;100049.69;5343807;28;34442;-86
2023/04/19 11:02:26;;;;;;;7.12;4.62;;;;;;;19.00;41.76;100044.19;5309872;33;33364;-88
2023/04/19 11:06:08;;;;;;;5.15;4.18;;;;;;;19.51;39.41;100039.75;5310614;33;33140;-89
2023/04/19 11:09:26;;;;;;;4.85;4.22;;;;;;;19.69;38.83;100042.28;5310339;33;33423;-87
2023/04/19 11:12:29;;;;;;;6.62;4.90;;;;;;;20.76;36.20;100039.56;5309796;33;33056;-87
2023/04/19 11:15:34;;;;;;;5.05;4.15;;;;;;;21.45;35.21;100034.41;5305440;33;33273;-86
2023/04/19 11:18:37;;;;;;;6.03;4.53;;;;;;;20.94;36.37;100033.81;5306237;33;33092;-86
2023/04/19 11:21:40;;;;;;;6.50;4.55;;;;;;;21.84;35.58;100033.41;5306037;33;34304;-87
2023/04/19 11:24:47;;;;;;;6.15;3.90;;;;;;;22.64;32.86;100028.81;5308392;33;33775;-90
2023/04/19 11:27:51;;;;;;;5.97;4.20;;;;;;;23.22;32.11;100032.34;5296407;33;33419;-90
2023/04/19 11:30:55;;;;;;;6.80;3.72;;;;;;;23.96;30.59;100024.81;5301210;33;33583;-87
2023/04/19 11:33:59;;;;;;;5.82;3.90;;;;;;;24.99;29.91;100026.25;5301886;33;34110;-86
2023/04/19 11:37:02;;;;;;;6.05;4.05;;;;;;;24.84;28.91;100021.62;5294134;33;33593;-86
2023/04/19 11:40:07;;;;;;;5.85;4.18;;;;;;;23.92;30.45;100026.44;5295074;33;33281;-87
2023/04/19 11:43:10;;;;;;;8.88;5.68;;;;;;;22.27;32.57;100017.88;5285684;33;33552;-85
2023/04/19 11:46:13;;;;;;;8.52;5.60;;;;;;;21.64;37.39;100023.91;5290328;33;34010;-86
2023/04/19 11:49:34;;;;;;;10.73;5.65;;;;;;;20.56;40.46;100030.03;5299648;33;33370;-85
2023/04/19 11:52:37;;;;;;;7.82;5.78;;;;;;;19.77;42.20;100026.56;5296745;33;33485;-88
2023/04/19 11:55:50;;;;;;;10.05;5.93;;;;;;;19.52;42.24;100029.66;5294760;33;33092;-87
2023/04/19 11:58:56;;;;;;;9.07;5.37;;;;;;;18.93;43.38;100032.59;5295160;33;34143;-87
2023/04/19 12:02:10;;;;;;;6.93;5.68;;;;;;;18.61;46.23;100022.09;5298404;33;33897;-88
2023/04/19 12:05:15;;;;;;;8.40;6.43;;;;;;;18.55;44.88;100023.03;5297577;33;32837;-88
2023/04/19 12:08:30;;;;;;;9.90;5.95;;;;;;;18.27;45.80;100019.13;5283064;33;34537;-88
2023/04/19 12:11:45;;;;;;;8.43;6.37;;;;;;;18.40;47.11;100020.81;5296613;33;33293;-88
2023/04/19 12:14:51;;;;;;;10.00;7.18;;;;;;;18.46;47.07;100022.56;5312473;33;33495;-89
2023/04/19 12:18:01;;;;;;;9.20;6.82;;;;;;;18.44;47.94;100008.34;5370414;28;34925;-88
2023/04/19 12:21:05;;;;;;;8.88;6.82;;;;;;;18.52;48.54;100016.16;5296780;33;34115;-87
2023/04/19 12:24:09;;;;;;;11.43;7.45;;;;;;;18.69;48.13;100012.69;5309314;33;33333;-86
2023/04/19 12:27:16;;;;;;;11.20;7.57;;;;;;;18.90;46.95;100005.81;5310193;33;33082;-88
2023/04/19 12:30:19;;;;;;;11.05;7.68;;;;;;;18.42;48.82;100010.47;5311413;33;33388;-89
2023/04/19 12:33:22;;;;;;;12.10;7.57;;;;;;;18.44;48.85;100018.41;5341286;28;33444;-88
2023/04/19 12:36:26;;;;;;;11.93;7.80;;;;;;;18.28;49.77;100017.22;5343695;28;33260;-91
2023/04/19 12:39:29;;;;;;;12.15;7.35;;;;;;;18.20;50.38;100018.44;5392194;28;35100;-89
2023/04/19 12:58:43;;;;;;;12.35;7.03;;;;;;;18.73;46.97;100017.47;5306149;33;31720;-87
2023/04/19 13:01:45;;;;;;;10.98;6.70;;;;;;;18.86;46.65;100015.53;5286527;33;33095;-87
2023/04/19 13:04:49;;;;;;;9.40;6.57;;;;;;;18.86;47.14;100010.91;5294726;33;33367;-88
2023/04/19 13:07:52;;;;;;;11.70;6.53;;;;;;;19.07;46.41;100003.97;5303327;33;33027;-86
2023/04/19 13:14:45;;;;;;;9.67;7.10;;;;;;;19.07;47.49;100009.44;5333684;28;32818;-89
2023/04/19 13:17:48;;;;;;;8.38;6.40;;;;;;;19.41;45.10;100002.16;5321378;28;34136;-91
2023/04/19 13:37:12;;;;;;;11.10;6.18;;;;;;;19.29;47.00;99998.66;809277;31;20525;-86
2023/04/19 13:40:15;;;;;;;7.30;6.03;;;;;;;19.21;47.52;100007.22;5312244;33;31800;-91
2023/04/19 13:43:21;;;;;;;10.80;6.45;;;;;;;19.38;45.51;99996.34;5297512;33;34051;-90
2023/04/19 13:46:24;;;;;;;10.65;6.62;;;;;;;19.25;45.44;100008.41;5306520;33;33446;-89
2023/04/19 13:49:27;;;;;;;12.52;8.52;;;;;;;18.91;48.65;100002.81;5279924;33;33492;-89
2023/04/19 13:52:30;;;;;;;12.27;9.15;;;;;;;18.72;52.36;99999.41;5293151;33;33298;-89
2023/04/19 13:55:33;;;;;;;14.45;9.93;;;;;;;18.74;53.91;99996.47;5297460;33;33594;-89
2023/04/19 13:58:36;;;;;;;13.20;9.23;;;;;;;18.70;54.66;99998.81;5284080;33;34045;-88
2023/04/19 14:01:40;;;;;;;12.55;9.23;;;;;;;18.76;55.44;99995.16;5295572;33;33434;-88
2023/04/19 14:04:43;;;;;;;16.75;10.27;;;;;;;18.80;53.77;99995.50;5296548;33;33539;-88
2023/04/19 14:07:46;;;;;;;14.20;9.48;;;;;;;18.80;54.46;99990.03;5309317;33;33320;-88
2023/04/19 14:10:49;;;;;;;15.32;9.38;;;;;;;18.82;55.18;99992.53;5285089;33;33294;-88
2023/04/19 14:13:52;;;;;;;15.02;10.13;;;;;;;18.81;55.42;99994.44;5310485;33;33442;-88
2023/04/19 14:16:55;;;;;;;14.85;9.48;;;;;;;18.98;54.90;99994.50;5314335;33;33484;-87
2023/04/19 14:19:58;;;;;;;16.25;9.40;;;;;;;19.04;54.21;99996.25;5288710;33;33396;-88
2023/04/19 14:23:01;;;;;;;11.30;8.48;;;;;;;18.70;53.74;99990.62;5312047;33;34432;-88
2023/04/19 14:26:04;;;;;;;13.32;8.18;;;;;;;19.08;52.77;99996.62;5285161;33;34868;-88
2023/04/19 14:29:07;;;;;;;13.38;8.40;;;;;;;19.03;52.73;99997.34;5298111;33;34805;-87
2023/04/19 14:32:09;;;;;;;9.30;7.37;;;;;;;19.15;51.99;99997.28;5296343;33;35003;-88
2023/04/19 14:35:18;;;;;;;12.10;7.97;;;;;;;19.52;51.23;99991.41;5292028;33;33643;-88
2023/04/19 14:38:21;;;;;;;12.02;8.07;;;;;;;19.19;51.88;99998.47;5292293;33;34187;-88
2023/04/19 14:41:24;;;;;;;13.60;8.18;;;;;;;19.63;51.95;100002.28;5267804;33;34726;-87
2023/04/19 14:44:27;;;;;;;9.45;7.03;;;;;;;20.60;48.34;100003.81;5283173;33;33401;-89
2023/04/19 14:47:30;;;;;;;9.05;6.57;;;;;;;22.01;43.90;99990.22;5284399;33;33280;-88
2023/04/19 14:50:33;;;;;;;12.10;7.12;;;;;;;21.53;44.91;99994.78;5305056;33;33551;-88
2023/04/19 14:53:36;;;;;;;10.82;7.07;;;;;;;21.58;44.66;99997.53;5301795;33;32872;-86
2023/04/19 14:56:38;;;;;;;13.57;6.70;;;;;;;21.64;44.66;100001.97;5290156;33;33571;-87
2023/04/19 14:59:41;;;;;;;8.43;6.65;;;;;;;20.82;45.67;100006.53;5282442;33;33133;-86
2023/04/19 15:02:44;;;;;;;10.23;6.00;;;;;;;20.30;47.04;100004.19;5277402;33;33027;-86
2023/04/19 15:05:47;;;;;;;8.63;6.28;;;;;;;19.65;48.99;100011.06;5290687;33;33353;-87
2023/04/19 15:08:51;;;;;;;10.82;6.43;;;;;;;18.82;50.55;100014.38;5285733;33;33296;-88
2023/04/19 15:11:55;;;;;;;9.18;6.62;;;;;;;18.40;52.26;100014.50;5285566;33;33680;-91
2023/04/19 15:14:58;;;;;;;8.45;5.95;;;;;;;18.01;53.47;100025.03;5283952;33;34042;-91
2023/04/19 15:18:02;;;;;;;10.82;5.95;;;;;;;17.85;54.52;100026.56;5286794;33;33684;-90
2023/04/19 15:21:06;;;;;;;8.75;6.05;;;;;;;17.48;55.45;100017.69;5305397;33;33960;-89
2023/04/19 15:24:10;;;;;;;8.60;6.05;;;;;;;17.31;56.08;100023.78;5284319;33;34144;-88
2023/04/19 15:27:13;;;;;;;8.80;5.95;;;;;;;17.27;56.33;100036.19;5285458;33;33567;-88
2023/04/19 15:30:16;;;;;;;8.45;5.70;;;;;;;17.38;56.95;100021.81;5286587;33;33481;-88
2023/04/19 15:33:20;;;;;;;8.40;5.12;;;;;;;17.38;56.54;100029.97;5278835;33;33468;-88
2023/04/19 15:36:26;;;;;;;9.35;5.15;;;;;;;17.30;56.65;100021.28;5275933;33;34021;-87
2023/04/19 15:39:30;;;;;;;8.65;5.40;;;;;;;17.08;57.78;100027.25;5291135;33;34781;-88
2023/04/19 15:42:35;;;;;;;8.32;5.15;;;;;;;16.95;58.45;100036.38;5272467;33;33307;-87
2023/04/19 15:45:41;;;;;;;6.95;5.32;;;;;;;16.75;58.21;100042.00;5286377;33;33645;-87
2023/04/19 15:48:47;;;;;;;5.60;4.10;;;;;;;16.70;59.66;100041.88;5296456;33;33619;-87
2023/04/19 15:51:50;;;;;;;6.43;4.15;;;;;;;16.53;57.36;100057.13;5298841;33;34153;-88
2023/04/19 15:54:54;;;;;;;5.22;3.87;;;;;;;16.54;57.20;100053.34;5284024;33;33568;-88
2023/04/19 15:57:57;;;;;;;4.97;3.42;;;;;;;16.46;56.98;100050.91;5297087;33;33242;-88
